Time;durP1;ratioP1;P1;durP2;ratioP2;P2;SDS_P1;SDS_P2;PMS_P1;PMS_P2;Temp;Humidity;BMP_temperature;BMP_pressure;BME280_temperature;BME280_humidity;BME280_pressure;Samples;Min_cycle;Max_cycle;Signal;HPM_P1;HPM_P2
2022/12/27 00:01:45;;;;;;;6.97;2.22;;;5.10;99.90;;;;;;4905297;29;20100;-75
2022/12/27 00:04:11;;;;;;;9.52;2.30;;;4.60;99.90;;;;;;4900146;29;20458;-75
2022/12/27 00:06:37;;;;;;;6.40;2.25;;;5.90;99.90;;;;;;4880560;29;20409;-75
2022/12/27 00:09:04;;;;;;;9.48;2.33;;;4.60;99.90;;;;;;4881968;29;20053;-75
2022/12/27 00:11:32;;;;;;;6.20;2.17;;;4.70;99.90;;;;;;4898322;29;20499;-75
2022/12/27 00:14:00;;;;;;;8.68;2.35;;;4.60;99.90;;;;;;4880399;29;20067;-75
2022/12/27 00:16:26;;;;;;;10.60;2.40;;;4.70;99.90;;;;;;4906010;29;20391;-74
2022/12/27 00:18:51;;;;;;;9.07;2.08;;;5.70;99.90;;;;;;4882921;29;20068;-75
2022/12/27 00:21:18;;;;;;;9.35;2.50;;;4.70;99.90;;;;;;4897121;29;20060;-75
2022/12/27 00:23:47;;;;;;;14.35;2.70;;;4.70;99.90;;;;;;4880402;29;20460;-75
2022/12/27 00:26:15;;;;;;;9.65;2.83;;;4.60;99.90;;;;;;4897115;29;20383;-75
2022/12/27 00:28:41;;;;;;;11.07;2.50;;;4.60;99.90;;;;;;4880219;29;20091;-74
2022/12/27 00:31:08;;;;;;;11.27;2.30;;;5.10;99.90;;;;;;4880235;29;20060;-75
2022/12/27 00:33:35;;;;;;;9.02;2.47;;;4.60;99.90;;;;;;4880480;29;20053;-75
2022/12/27 00:36:04;;;;;;;9.32;2.42;;;4.60;99.90;;;;;;4896951;29;20045;-75
2022/12/27 00:38:31;;;;;;;8.55;2.50;;;4.60;99.90;;;;;;4880604;29;20053;-75
2022/12/27 00:40:56;;;;;;;15.98;3.13;;;5.80;99.90;;;;;;4883492;29;20386;-74
2022/12/27 00:43:22;;;;;;;13.25;2.40;;;4.70;99.90;;;;;;4900815;29;20056;-75
2022/12/27 00:45:48;;;;;;;11.57;2.70;;;4.60;99.90;;;;;;4916092;29;20086;-75
2022/12/27 00:48:13;;;;;;;9.50;2.13;;;4.60;99.90;;;;;;4893586;29;20203;-75
2022/12/27 00:50:40;;;;;;;9.98;2.50;;;4.70;99.90;;;;;;4898003;29;20056;-74
2022/12/27 00:53:07;;;;;;;13.25;2.50;;;4.70;99.90;;;;;;4914346;29;20119;-75
2022/12/27 00:55:33;;;;;;;11.18;2.28;;;4.70;99.90;;;;;;4883848;29;20060;-74
2022/12/27 00:57:59;;;;;;;11.18;2.30;;;4.80;99.90;;;;;;4883834;29;20060;-74
2022/12/27 01:00:24;;;;;;;16.00;2.55;;;5.90;99.90;;;;;;4895642;29;20523;-74
2022/12/27 01:02:50;;;;;;;8.77;2.25;;;4.90;99.90;;;;;;4902760;29;20060;-74
2022/12/27 01:05:16;;;;;;;9.20;2.30;;;4.80;99.90;;;;;;4884045;29;20051;-75
2022/12/27 01:07:41;;;;;;;11.77;2.30;;;4.80;99.90;;;;;;4901063;29;20052;-75
2022/12/27 01:10:07;;;;;;;11.80;2.78;;;4.90;99.90;;;;;;4888182;29;20155;-75
2022/12/27 01:12:34;;;;;;;10.90;2.40;;;4.80;99.90;;;;;;4889068;29;20049;-75
2022/12/27 01:14:59;;;;;;;9.63;2.60;;;5.80;99.90;;;;;;4883237;29;20060;-75
2022/12/27 01:17:25;;;;;;;10.25;2.47;;;5.80;99.90;;;;;;4891866;29;20463;-75
2022/12/27 01:19:51;;;;;;;10.55;2.47;;;4.90;99.90;;;;;;4881299;29;20081;-74
2022/12/27 01:22:16;;;;;;;13.10;2.65;;;4.90;99.90;;;;;;4880998;29;20063;-75
2022/12/27 01:24:42;;;;;;;7.93;2.33;;;5.10;99.90;;;;;;4881034;29;20111;-75
2022/12/27 01:27:07;;;;;;;10.18;2.30;;;4.80;99.90;;;;;;4881079;29;20092;-75
2022/12/27 01:29:33;;;;;;;9.10;2.58;;;4.90;99.90;;;;;;4882863;29;20157;-75
2022/12/27 01:31:59;;;;;;;11.30;2.22;;;4.90;99.90;;;;;;4899368;29;20502;-75
2022/12/27 01:34:24;;;;;;;12.13;2.70;;;4.90;99.90;;;;;;4882824;29;20060;-75
2022/12/27 01:36:50;;;;;;;5.82;2.03;;;5.00;99.90;;;;;;4882713;29;20420;-75
2022/12/27 01:39:15;;;;;;;12.50;2.72;;;5.00;99.90;;;;;;4899553;29;20095;-75
2022/12/27 01:44:42;;;;;;;5.97;1.80;;;5.10;99.90;;;;;;4899586;29;20140;-75
2022/12/27 01:47:11;;;;;;;9.95;2.35;;;5.20;99.90;;;;;;4882485;29;20060;-75
2022/12/27 01:49:50;;;;;;;13.98;2.50;;;5.30;99.90;;;;;;4895182;29;20057;-75
2022/12/27 01:52:16;;;;;;;10.90;2.33;;;5.40;99.90;;;;;;4895907;29;20052;-75
2022/12/27 01:54:42;;;;;;;11.63;2.42;;;6.60;99.90;;;;;;4902785;29;20061;-75
2022/12/27 01:57:09;;;;;;;9.70;2.28;;;5.40;99.90;;;;;;4882277;29;20096;-75
2022/12/27 01:59:35;;;;;;;7.45;1.80;;;5.40;99.90;;;;;;4903283;29;20067;-75
2022/12/27 02:02:02;;;;;;;6.97;2.15;;;6.70;99.90;;;;;;4914804;29;20110;-75
2022/12/27 02:04:30;;;;;;;12.05;2.03;;;5.60;99.90;;;;;;4899009;29;20088;-75
2022/12/27 02:06:58;;;;;;;8.57;2.00;;;5.60;99.90;;;;;;4866516;29;20094;-75
2022/12/27 02:09:44;;;;;;;7.85;1.90;;;6.40;99.90;;;;;;4899136;29;20053;-75
2022/12/27 02:12:10;;;;;;;7.72;1.95;;;5.50;99.90;;;;;;4902353;29;20052;-75
2022/12/27 02:14:45;;;;;;;12.15;2.25;;;5.50;99.90;;;;;;4898923;29;20120;-75
2022/12/27 02:17:21;;;;;;;5.07;2.40;;;5.40;99.90;;;;;;4882346;29;20445;-75
2022/12/27 02:20:10;;;;;;;10.25;2.15;;;5.50;99.90;;;;;;4878825;29;20053;-75
2022/12/27 02:26:04;;;;;;;8.23;2.63;;;5.50;99.90;;;;;;4879607;29;20085;-75
2022/12/27 02:28:42;;;;;;;11.77;2.20;;;6.20;99.90;;;;;;4879629;29;20057;-75
2022/12/27 02:31:18;;;;;;;11.98;2.28;;;5.50;99.90;;;;;;4898296;29;20417;-75
2022/12/27 02:33:48;;;;;;;;;;;5.40;99.90;;;;;;4899095;29;20140;-75
2022/12/27 02:36:21;;;;;;;12.20;2.30;;;6.30;99.90;;;;;;4866087;29;19928;-75
2022/12/27 02:38:50;;;;;;;8.27;2.15;;;5.40;99.90;;;;;;4898630;29;20104;-75
2022/12/27 02:53:02;;;;;;;7.53;2.10;;;5.50;99.90;;;;;;4913970;29;20052;-75
2022/12/27 02:59:06;;;;;;;8.60;1.92;;;5.40;99.90;;;;;;4885435;29;20040;-75
2022/12/27 03:04:30;;;;;;;10.38;2.47;;;5.80;99.90;;;;;;4882328;29;20052;-75
2022/12/27 03:07:03;;;;;;;8.93;2.42;;;5.40;99.90;;;;;;4866418;29;20061;-75
2022/12/27 03:16:02;;;;;;;;;;;5.50;99.90;;;;;;4914190;29;20052;-75
2022/12/27 03:18:43;;;;;;;10.05;2.60;;;5.40;99.90;;;;;;4879982;29;19923;-75
2022/12/27 03:26:46;;;;;;;8.63;2.35;;;5.40;99.90;;;;;;4880733;29;19929;-75
2022/12/27 03:34:58;;;;;;;16.10;2.78;;;6.20;99.90;;;;;;4883512;29;20167;-75
2022/12/27 03:40:27;;;;;;;11.40;2.70;;;6.60;99.90;;;;;;4891072;29;20131;-75
2022/12/27 03:43:11;;;;;;;10.82;2.50;;;5.50;99.90;;;;;;4916389;29;20067;-75
2022/12/27 03:49:02;;;;;;;9.02;2.88;;;5.50;99.90;;;;;;4916289;29;20190;-75
2022/12/27 03:51:33;;;;;;;7.40;2.22;;;5.50;99.90;;;;;;4899032;29;20115;-75
2022/12/27 03:54:05;;;;;;;9.88;2.58;;;5.50;99.90;;;;;;4916585;29;20048;-75
2022/12/27 03:56:31;;;;;;;7.50;2.25;;;5.40;99.90;;;;;;4914951;29;20064;-75
2022/12/27 03:58:59;;;;;;;13.18;3.28;;;5.40;99.90;;;;;;4910414;29;20063;-75
2022/12/27 04:01:25;;;;;;;9.35;2.40;;;6.50;99.90;;;;;;4880595;29;20057;-75
2022/12/27 04:03:50;;;;;;;10.63;2.30;;;5.40;99.90;;;;;;4880822;29;20511;-75
2022/12/27 04:06:16;;;;;;;7.85;2.10;;;5.30;99.90;;;;;;4897565;29;20143;-75
2022/12/27 04:36:04;;;;;;;9.35;2.38;;;5.20;99.90;;;;;;4880431;29;20052;-75
2022/12/27 04:38:30;;;;;;;8.68;2.33;;;5.20;99.90;;;;;;4880707;29;20509;-75
2022/12/27 04:55:24;;;;;;;9.35;2.80;;;5.30;99.90;;;;;;4861796;29;20518;-75
2022/12/27 04:57:51;;;;;;;10.50;2.70;;;5.30;99.90;;;;;;4855690;29;20057;-75
2022/12/27 05:03:05;;;;;;;;;;;5.30;99.90;;;;;;4862371;29;20403;-75
2022/12/27 05:05:31;;;;;;;11.57;2.90;;;5.80;99.90;;;;;;4865057;29;20370;-75
2022/12/27 05:16:12;;;;;;;11.48;2.50;;;5.80;99.90;;;;;;4862798;29;20045;-75
2022/12/27 05:18:37;;;;;;;11.52;2.78;;;4.90;99.90;;;;;;4846524;29;20186;-75
2022/12/27 05:21:05;;;;;;;12.18;3.25;;;4.90;99.90;;;;;;4857142;29;20535;-75
2022/12/27 05:26:21;;;;;;;13.18;2.70;;;4.90;99.90;;;;;;4882761;29;20124;-75
2022/12/27 05:28:49;;;;;;;11.98;2.75;;;4.90;99.90;;;;;;4899869;29;20130;-75
2022/12/27 05:31:14;;;;;;;12.27;3.50;;;4.80;99.90;;;;;;4882676;29;20065;-75
2022/12/27 05:33:40;;;;;;;10.07;2.90;;;4.80;99.90;;;;;;4899777;29;20092;-75
2022/12/27 05:36:06;;;;;;;11.90;3.13;;;4.80;99.90;;;;;;4916553;29;20485;-74
2022/12/27 05:38:32;;;;;;;9.77;2.83;;;4.80;99.90;;;;;;4901236;29;20052;-75
2022/12/27 05:41:01;;;;;;;11.35;2.60;;;4.80;99.90;;;;;;4917291;29;20614;-74
2022/12/27 05:43:27;;;;;;;13.43;2.47;;;4.80;99.90;;;;;;4900228;29;20067;-75
2022/12/27 05:45:53;;;;;;;9.35;2.35;;;4.80;99.90;;;;;;4918307;29;20405;-75
2022/12/27 05:48:20;;;;;;;9.82;2.47;;;5.20;99.90;;;;;;4916701;29;20092;-75
2022/12/27 05:50:45;;;;;;;10.13;2.53;;;4.70;99.90;;;;;;4899157;29;20060;-75
2022/12/27 05:53:11;;;;;;;11.02;3.17;;;4.70;99.90;;;;;;4868034;29;20508;-75
2022/12/27 05:55:37;;;;;;;22.10;3.13;;;4.70;99.90;;;;;;4898951;29;20060;-75
2022/12/27 05:58:02;;;;;;;7.38;2.30;;;4.80;99.90;;;;;;4899483;29;20060;-75
2022/12/27 06:00:28;;;;;;;13.48;3.50;;;4.60;99.90;;;;;;4883238;29;20122;-75
2022/12/27 06:02:54;;;;;;;13.45;2.88;;;5.30;99.90;;;;;;4883507;29;20126;-75
2022/12/27 06:05:19;;;;;;;10.10;2.50;;;4.60;99.90;;;;;;4898856;29;20099;-75
2022/12/27 06:07:45;;;;;;;13.25;2.70;;;4.50;99.90;;;;;;4882374;29;20083;-75
2022/12/27 06:10:11;;;;;;;13.57;2.40;;;4.50;99.90;;;;;;4881770;29;20123;-75
2022/12/27 06:12:37;;;;;;;9.05;2.60;;;4.50;99.90;;;;;;4898950;29;20485;-75
2022/12/27 06:15:04;;;;;;;12.60;2.72;;;4.30;99.90;;;;;;4882154;29;20060;-76
2022/12/27 06:17:29;;;;;;;11.07;2.80;;;4.30;99.90;;;;;;4881999;29;20390;-75
2022/12/27 06:19:55;;;;;;;10.88;2.88;;;4.30;99.90;;;;;;4898732;29;20108;-75
2022/12/27 06:22:21;;;;;;;11.98;2.42;;;5.20;99.90;;;;;;4898776;29;20100;-76
2022/12/27 06:24:46;;;;;;;11.57;3.17;;;4.30;99.90;;;;;;4900444;29;20409;-75
2022/12/27 06:27:12;;;;;;;14.23;3.45;;;4.30;99.90;;;;;;4900597;29;20060;-76
2022/12/27 06:29:38;;;;;;;13.13;2.67;;;4.30;99.90;;;;;;4917597;29;20066;-75
2022/12/27 06:32:03;;;;;;;9.90;2.45;;;5.30;99.90;;;;;;4900276;29;20052;-75
2022/12/27 06:34:29;;;;;;;17.42;3.00;;;4.30;99.90;;;;;;4917500;29;20493;-75
2022/12/27 06:36:54;;;;;;;15.02;3.05;;;4.30;99.90;;;;;;4916679;29;20068;-75
2022/12/27 06:39:20;;;;;;;14.60;3.10;;;4.30;99.90;;;;;;4898790;29;20137;-75
2022/12/27 06:41:46;;;;;;;10.43;2.88;;;4.30;99.90;;;;;;4912248;29;20099;-75
2022/12/27 06:44:11;;;;;;;11.57;2.60;;;4.30;99.90;;;;;;4914232;29;20047;-75
2022/12/27 06:46:37;;;;;;;11.43;2.92;;;5.50;99.90;;;;;;4912351;29;20064;-76
2022/12/27 06:49:03;;;;;;;12.18;2.60;;;4.30;99.90;;;;;;4912399;29;20501;-75
2022/12/27 06:51:29;;;;;;;11.48;2.42;;;4.30;99.90;;;;;;4882559;29;20052;-75
2022/12/27 06:53:54;;;;;;;11.65;3.75;;;4.20;99.90;;;;;;4899977;29;20424;-75
2022/12/27 06:56:22;;;;;;;11.43;2.70;;;5.20;99.90;;;;;;4899757;29;20055;-75
2022/12/27 06:58:49;;;;;;;12.15;2.88;;;4.20;99.90;;;;;;4917371;29;20048;-75
2022/12/27 07:01:17;;;;;;;12.45;2.78;;;4.20;99.90;;;;;;4899697;29;20147;-76
2022/12/27 07:03:46;;;;;;;13.32;2.55;;;4.20;99.90;;;;;;4900024;29;20058;-76
2022/12/27 07:06:12;;;;;;;11.20;2.83;;;4.10;99.90;;;;;;4907420;29;20052;-76
2022/12/27 07:08:38;;;;;;;13.98;2.90;;;4.70;99.90;;;;;;4897728;29;20498;-76
2022/12/27 07:11:06;;;;;;;11.60;3.25;;;4.20;99.90;;;;;;4880513;29;20257;-75
2022/12/27 07:13:35;;;;;;;12.70;3.35;;;4.10;99.90;;;;;;4897744;29;20170;-75
2022/12/27 07:16:04;;;;;;;12.50;2.90;;;4.10;99.90;;;;;;4879524;29;20056;-75
2022/12/27 07:18:30;;;;;;;13.38;3.13;;;4.10;99.90;;;;;;4867816;29;20182;-76
2022/12/27 07:20:56;;;;;;;12.65;3.10;;;4.10;99.90;;;;;;4862061;29;20059;-75
2022/12/27 07:23:21;;;;;;;11.93;2.63;;;4.10;99.90;;;;;;4877845;29;20414;-75
2022/12/27 07:25:47;;;;;;;9.05;2.50;;;4.20;99.90;;;;;;4862014;29;20510;-75
2022/12/27 07:28:13;;;;;;;9.32;2.80;;;4.10;99.90;;;;;;4879069;29;20053;-75
2022/12/27 07:30:40;;;;;;;11.73;2.80;;;4.10;99.90;;;;;;4878506;29;20049;-75
2022/12/27 07:33:06;;;;;;;12.00;2.92;;;4.10;99.90;;;;;;4879099;29;20052;-75
2022/12/27 07:35:32;;;;;;;12.40;3.47;;;4.10;99.90;;;;;;4861878;29;20065;-76
2022/12/27 07:37:58;;;;;;;9.40;2.50;;;4.00;99.90;;;;;;4886647;29;20068;-76
2022/12/27 07:40:24;;;;;;;10.02;2.53;;;4.10;99.90;;;;;;4880569;29;20056;-76
2022/12/27 07:42:49;;;;;;;14.20;2.30;;;4.20;99.90;;;;;;4897594;29;20080;-76
2022/12/27 07:45:15;;;;;;;11.25;2.47;;;4.20;99.90;;;;;;4904691;29;20511;-76
2022/12/27 07:47:41;;;;;;;14.15;3.25;;;4.20;99.90;;;;;;4884332;29;20490;-75
2022/12/27 07:50:06;;;;;;;12.48;2.78;;;4.30;99.90;;;;;;4879563;29;20052;-75
2022/12/27 07:52:32;;;;;;;12.20;2.47;;;4.30;99.90;;;;;;4897301;29;20048;-75
2022/12/27 07:54:58;;;;;;;11.13;2.88;;;5.40;99.90;;;;;;4896002;29;20052;-76
2022/12/27 07:57:23;;;;;;;10.95;2.28;;;4.40;99.90;;;;;;4897250;29;20132;-75
2022/12/27 07:59:49;;;;;;;9.80;2.65;;;5.40;99.90;;;;;;4897737;29;20501;-76
2022/12/27 08:02:15;;;;;;;9.13;2.28;;;4.30;99.90;;;;;;4896106;29;20041;-75
2022/12/27 08:04:41;;;;;;;13.63;2.50;;;4.40;99.90;;;;;;4897343;29;20048;-75
2022/12/27 08:07:11;;;;;;;12.52;2.75;;;4.40;99.90;;;;;;4895995;29;20367;-76
2022/12/27 08:09:39;;;;;;;12.38;3.00;;;4.40;99.90;;;;;;4895267;29;20060;-75
2022/12/27 08:12:06;;;;;;;7.38;2.80;;;4.30;99.90;;;;;;4895618;29;20513;-76
2022/12/27 08:14:32;;;;;;;10.27;2.67;;;4.30;99.90;;;;;;4896012;29;20059;-76
2022/12/27 08:17:22;;;;;;;13.00;2.80;;;4.40;99.90;;;;;;4894559;29;20378;-76
2022/12/27 08:19:50;;;;;;;13.40;3.30;;;4.50;99.90;;;;;;4874474;29;20056;-76
2022/12/27 08:22:15;;;;;;;10.43;2.50;;;4.40;99.90;;;;;;4886593;29;20131;-76
2022/12/27 08:24:42;;;;;;;8.20;2.63;;;4.40;99.90;;;;;;4864684;29;20092;-76
2022/12/27 08:27:09;;;;;;;11.80;3.35;;;4.60;99.90;;;;;;4897028;29;20129;-76
2022/12/27 08:29:35;;;;;;;14.07;2.70;;;4.60;99.90;;;;;;4864979;29;20134;-75
2022/12/27 08:32:00;;;;;;;15.50;3.22;;;5.70;99.90;;;;;;4896798;29;20052;-76
2022/12/27 08:34:26;;;;;;;11.82;3.10;;;4.60;99.90;;;;;;4879735;29;20057;-76
2022/12/27 08:36:52;;;;;;;11.57;3.40;;;4.60;99.90;;;;;;4896209;29;20064;-76
2022/12/27 08:39:18;;;;;;;12.13;2.90;;;5.70;99.90;;;;;;4907210;29;20056;-76
2022/12/27 08:41:44;;;;;;;12.80;2.90;;;4.60;99.90;;;;;;4898903;29;20052;-75
2022/12/27 08:44:10;;;;;;;16.85;3.40;;;4.70;99.90;;;;;;4883087;29;20343;-76
2022/12/27 08:46:37;;;;;;;14.80;3.47;;;4.70;99.90;;;;;;4897645;29;20051;-76
2022/12/27 08:49:03;;;;;;;11.45;2.90;;;4.70;99.90;;;;;;4898773;29;20405;-76
2022/12/27 08:51:29;;;;;;;12.35;2.65;;;4.80;99.90;;;;;;4915353;29;20092;-76
2022/12/27 08:53:55;;;;;;;15.68;2.97;;;4.90;99.90;;;;;;4897428;29;20059;-77
2022/12/27 08:56:21;;;;;;;13.68;3.35;;;4.90;99.90;;;;;;4898446;29;20134;-77
2022/12/27 08:58:49;;;;;;;11.77;3.15;;;5.00;99.90;;;;;;4885374;29;20140;-75
2022/12/27 09:01:16;;;;;;;13.45;3.20;;;5.70;99.90;;;;;;4882245;29;20180;-77
2022/12/27 09:03:41;;;;;;;10.32;3.15;;;5.10;99.90;;;;;;4901938;29;20044;-76
2022/12/27 09:06:16;;;;;;;11.82;3.35;;;5.20;99.90;;;;;;4909598;29;20060;-76
2022/12/27 09:08:43;;;;;;;16.38;2.88;;;5.20;99.90;;;;;;4883057;29;20136;-77
2022/12/27 09:11:18;;;;;;;15.15;3.28;;;4.60;99.90;;;;;;4907145;29;20063;-78
2022/12/27 09:13:44;;;;;;;11.15;3.25;;;5.40;99.90;;;;;;4883265;29;20429;-76
2022/12/27 09:16:18;;;;;;;13.13;2.80;;;6.90;99.90;;;;;;4884744;29;20049;-77
2022/12/27 09:18:48;;;;;;;15.07;3.08;;;5.70;99.90;;;;;;4891934;29;20505;-77
2022/12/27 09:21:15;;;;;;;9.38;2.80;;;7.00;99.90;;;;;;4883018;29;20068;-74
2022/12/27 09:23:41;;;;;;;10.93;3.42;;;6.70;99.90;;;;;;4899725;29;20060;-73
2022/12/27 09:26:13;;;;;;;12.57;2.78;;;8.10;99.90;;;;;;4899698;29;20422;-75
2022/12/27 09:28:40;;;;;;;15.77;3.38;;;9.00;99.90;;;;;;4899799;29;20354;-75
2022/12/27 09:31:07;;;;;;;13.45;3.25;;;;;;;;;;4882668;29;20147;-72
2022/12/27 09:33:33;;;;;;;11.52;3.13;;;;;;;;;;4899488;29;20112;-74
2022/12/27 09:36:04;;;;;;;11.63;3.10;;;;;;;;;;4914620;29;20060;-75
2022/12/27 09:38:30;;;;;;;12.27;2.85;;;;;;;;;;4914061;29;20052;-75
2022/12/27 09:40:58;;;;;;;10.57;3.30;;;;;;;;;;4886798;29;20045;-74
2022/12/27 09:43:30;;;;;;;11.60;2.97;;;;;;;;;;4887710;29;20067;-74
2022/12/27 09:45:58;;;;;;;12.80;3.45;;;;;;;;;;4893180;29;20158;-75
2022/12/27 09:48:34;;;;;;;14.95;2.97;;;;;;;;;;4900953;29;20382;-75
2022/12/27 09:51:10;;;;;;;9.73;2.83;;;;;;;;;;4906789;29;20135;-75
2022/12/27 09:53:46;;;;;;;8.88;2.67;;;;;;;;;;4882617;29;20450;-75
2022/12/27 09:56:13;;;;;;;8.98;2.67;;;;;;;;;;4899042;29;20056;-75
2022/12/27 09:58:46;;;;;;;7.15;2.42;;;;;;;;;;4899195;29;20104;-72
2022/12/27 10:01:33;;;;;;;10.55;2.88;;;;;;;;;;4881924;29;20064;-75
2022/12/27 10:03:59;;;;;;;9.57;2.88;;;;;;;;;;4890356;29;20051;-74
2022/12/27 10:06:25;;;;;;;12.63;3.10;;;;;;;;;;4907339;29;20056;-74
2022/12/27 10:08:55;;;;;;;11.40;2.85;;;;;;;;;;4876246;29;20148;-74
2022/12/27 10:11:42;;;;;;;10.55;2.88;;;;;;;;;;4886827;29;20078;-74
2022/12/27 10:14:11;;;;;;;8.80;3.08;;;;;;;;;;4895912;29;20086;-74
2022/12/27 10:16:41;;;;;;;11.45;3.08;;;;;;;;;;4892688;29;20084;-74
2022/12/27 10:19:31;;;;;;;9.32;3.00;;;;;;;;;;4876646;29;20122;-74
2022/12/27 10:22:09;;;;;;;8.57;2.72;;;;;;;;;;4888462;29;20497;-74
2022/12/27 10:24:40;;;;;;;11.15;2.95;;;;;;;;;;4892662;29;20143;-74
2022/12/27 10:27:18;;;;;;;10.85;2.65;;;;;;;;;;4894441;29;20546;-74
2022/12/27 10:29:44;;;;;;;12.57;2.95;;;;;;;;;;4893409;29;20067;-74
2022/12/27 10:32:12;;;;;;;11.07;3.03;;;;;;;;;;4893752;29;20060;-75
2022/12/27 10:34:39;;;;;;;8.32;2.67;;;;;;;;;;4886937;29;20048;-75
2022/12/27 10:37:05;;;;;;;10.40;3.08;;;;;;;;;;4895885;29;20060;-75
2022/12/27 10:39:35;;;;;;;10.65;2.97;;;;;;;;;;4896169;29;20059;-74
2022/12/27 10:42:07;;;;;;;10.23;2.70;;;;;;;;;;4890713;29;20095;-74
2022/12/27 10:44:33;;;;;;;8.77;2.35;;;;;;;;;;4894651;29;20484;-75
2022/12/27 10:46:59;;;;;;;12.80;2.97;;;;;;;;;;4904221;29;20052;-74
2022/12/27 10:49:27;;;;;;;10.57;2.70;;;;;;;;;;4894853;29;20060;-74
2022/12/27 10:51:56;;;;;;;10.00;2.65;;;;;;;;;;4898169;29;20075;-74
2022/12/27 10:54:23;;;;;;;10.95;2.78;;;;;;;;;;4896932;29;20092;-74
2022/12/27 10:56:50;;;;;;;7.20;2.58;;;;;;;;;;4897785;29;20057;-74
2022/12/27 10:59:17;;;;;;;9.43;2.75;;;;;;;;;;4898818;29;20497;-74
2022/12/27 11:01:44;;;;;;;12.77;2.90;;;;;;;;;;4897557;29;20135;-74
2022/12/27 11:04:15;;;;;;;9.30;2.33;;;;;;;;;;4888307;29;20126;-75
2022/12/27 11:06:42;;;;;;;10.35;3.00;;;;;;;;;;4899140;29;20063;-75
2022/12/27 11:09:28;;;;;;;9.35;2.65;;;;;;;;;;4915475;29;20044;-75
2022/12/27 11:12:15;;;;;;;8.00;2.40;;;;;;;;;;4914534;29;20055;-75
2022/12/27 11:14:53;;;;;;;7.88;2.95;;;;;;;;;;4899369;29;20131;-74
2022/12/27 11:17:20;;;;;;;8.95;2.90;;;;;;;;;;4911593;29;20101;-75
2022/12/27 11:19:47;;;;;;;10.40;3.10;;;10.70;99.90;;;;;;4897956;29;20124;-72
2022/12/27 11:22:13;;;;;;;9.85;2.75;;;20.50;93.40;;;;;;4894224;29;20137;-73
2022/12/27 11:24:44;;;;;;;9.05;2.30;;;;;;;;;;4894794;29;20503;-73
2022/12/27 11:27:20;;;;;;;7.80;2.42;;;21.00;91.80;;;;;;4893248;29;20140;-73
2022/12/27 11:29:47;;;;;;;9.07;2.30;;;19.20;92.10;;;;;;4894573;29;20063;-73
2022/12/27 11:32:13;;;;;;;12.35;2.83;;;18.50;92.40;;;;;;4894545;29;20375;-73
2022/12/27 11:34:43;;;;;;;13.50;2.50;;;18.40;92.40;;;;;;4902625;29;20044;-73
2022/12/27 11:37:16;;;;;;;11.75;2.53;;;17.70;93.10;;;;;;4912965;29;20052;-73
2022/12/27 11:40:19;;;;;;;9.75;2.60;;;16.60;94.20;;;;;;4911904;29;20062;-72
2022/12/27 11:42:49;;;;;;;10.38;2.28;;;15.10;95.90;;;;;;4894748;29;20420;-72
2022/12/27 11:45:18;;;;;;;8.00;2.47;;;;;;;;;;4913163;29;20452;-72
2022/12/27 11:47:49;;;;;;;6.95;2.42;;;;;;;;;;4912988;29;20071;-72
2022/12/27 11:50:27;;;;;;;9.35;2.50;;;14.80;97.60;;;;;;4884775;29;20060;-72
2022/12/27 11:53:14;;;;;;;8.00;2.22;;;18.40;95.00;;;;;;4862290;29;20505;-72
2022/12/27 11:56:11;;;;;;;9.43;2.88;;;18.80;93.70;;;;;;4894300;29;20425;-73
2022/12/27 11:58:53;;;;;;;7.57;2.30;;;19.40;92.90;;;;;;4895257;29;20482;-74
2022/12/27 12:01:38;;;;;;;10.75;2.80;;;20.10;91.70;;;;;;4893861;29;20528;-74
2022/12/27 12:04:41;;;;;;;9.18;2.50;;;20.70;91.30;;;;;;4876508;29;20055;-74
2022/12/27 12:07:15;;;;;;;10.23;2.47;;;21.30;90.10;;;;;;4884571;29;20060;-77
2022/12/27 12:10:15;;;;;;;13.95;2.38;;;21.60;89.70;;;;;;4899166;29;20049;-76
2022/12/27 12:13:02;;;;;;;8.65;2.63;;;21.80;88.40;;;;;;4900539;29;20056;-76
2022/12/27 12:15:49;;;;;;;7.80;2.42;;;21.50;88.10;;;;;;4881073;29;20052;-75
2022/12/27 12:18:15;;;;;;;10.27;2.47;;;20.50;89.60;;;;;;4896950;29;20064;-75
2022/12/27 12:21:06;;;;;;;12.55;2.85;;;19.90;90.10;;;;;;4896874;29;20406;-75
2022/12/27 12:24:03;;;;;;;9.18;2.45;;;20.00;90.10;;;;;;4880123;29;20429;-76
2022/12/27 12:27:24;;;;;;;10.07;2.35;;;20.70;89.80;;;;;;4894387;29;20140;-75
2022/12/27 12:30:08;;;;;;;9.05;2.55;;;21.30;89.20;;;;;;4846222;29;20049;-75
2022/12/27 12:32:53;;;;;;;8.48;2.83;;;21.80;86.30;;;;;;4877206;29;20057;-75
2022/12/27 12:35:47;;;;;;;10.03;2.70;;;22.10;86.40;;;;;;4878355;29;20068;-76
2022/12/27 12:38:27;;;;;;;8.60;2.25;;;21.90;86.10;;;;;;4881923;29;20061;-76
2022/12/27 12:41:17;;;;;;;6.38;2.22;;;21.40;85.70;;;;;;4881915;29;20064;-75
2022/12/27 12:43:49;;;;;;;9.30;2.58;;;20.30;86.90;;;;;;4864913;29;20116;-75
2022/12/27 12:46:45;;;;;;;9.27;2.33;;;19.30;88.90;;;;;;4867943;29;20053;-75
2022/12/27 12:49:29;;;;;;;;;;;18.50;90.00;;;;;;4917736;29;20398;-75
2022/12/27 12:52:19;;;;;;;8.88;2.38;;;16.70;91.80;;;;;;4919248;29;19967;-75
2022/12/27 12:54:49;;;;;;;7.78;2.38;;;;;;;;;;4918688;29;20381;-75
2022/12/27 12:57:15;;;;;;;9.45;2.40;;;;;;;;;;4917567;29;20051;-75
2022/12/27 13:00:00;;;;;;;7.47;2.15;;;;;;;;;;4917607;29;20131;-75
2022/12/27 13:02:35;;;;;;;8.55;2.50;;;;;;;;;;4918970;29;20048;-75
2022/12/27 13:05:23;;;;;;;10.30;2.50;;;;;;;;;;4918618;29;20092;-75
2022/12/27 13:07:58;;;;;;;11.32;2.60;;;;;;;;;;4901884;29;20060;-74
2022/12/27 13:10:43;;;;;;;12.65;3.08;;;;;;;;;;4917091;29;20068;-75
2022/12/27 13:13:29;;;;;;;12.80;3.38;;;;;;;;;;4918754;29;20059;-75
2022/12/27 13:16:20;;;;;;;11.52;2.78;;;15.20;93.90;;;;;;4901526;29;20509;-75
2022/12/27 13:19:10;;;;;;;11.57;3.25;;;10.30;99.90;;;;;;4883237;29;20499;-75
2022/12/27 13:21:57;;;;;;;10.77;2.80;;;9.90;99.90;;;;;;4879588;29;20049;-75
2022/12/27 13:25:01;;;;;;;8.88;3.15;;;9.70;99.90;;;;;;4889029;29;20127;-75
2022/12/27 13:27:34;;;;;;;11.68;3.10;;;9.50;99.90;;;;;;4916477;29;20101;-75
2022/12/27 13:30:22;;;;;;;11.82;3.13;;;9.20;99.90;;;;;;4885097;29;20151;-75
2022/12/27 13:33:14;;;;;;;12.55;3.40;;;9.00;99.90;;;;;;4915174;29;20067;-75
2022/12/27 13:36:02;;;;;;;10.82;3.20;;;8.90;99.90;;;;;;4897567;29;20131;-75
2022/12/27 13:38:49;;;;;;;10.95;3.38;;;8.70;99.90;;;;;;4899452;29;20132;-75
2022/12/27 13:41:42;;;;;;;11.18;2.90;;;8.70;99.90;;;;;;4899145;29;20060;-76
2022/12/27 13:44:34;;;;;;;11.18;2.58;;;8.50;99.90;;;;;;4882517;29;20048;-75
2022/12/27 13:47:15;;;;;;;8.38;2.72;;;8.50;99.90;;;;;;4898130;29;20490;-75
2022/12/27 13:50:13;;;;;;;13.15;2.63;;;8.90;99.90;;;;;;4899289;29;20080;-75
2022/12/27 13:52:55;;;;;;;8.13;2.90;;;8.20;99.90;;;;;;4899091;29;20502;-75
2022/12/27 13:55:58;;;;;;;15.93;3.55;;;8.00;99.90;;;;;;4897573;29;20576;-75
2022/12/27 13:58:45;;;;;;;10.35;2.65;;;7.90;99.90;;;;;;4881975;29;20060;-75
2022/12/27 14:01:39;;;;;;;10.88;3.03;;;7.80;99.90;;;;;;4866452;29;20059;-76
2022/12/27 14:04:22;;;;;;;11.95;3.00;;;7.90;99.90;;;;;;4899335;29;20056;-75
2022/12/27 14:07:00;;;;;;;17.60;3.60;;;7.80;99.90;;;;;;4898616;29;20060;-75
2022/12/27 14:09:44;;;;;;;8.98;2.58;;;7.60;99.90;;;;;;4899122;29;20052;-75
2022/12/27 14:12:50;;;;;;;14.43;3.40;;;7.60;99.90;;;;;;4896430;29;20540;-75
2022/12/27 14:15:20;;;;;;;11.02;3.55;;;7.60;99.90;;;;;;4898733;29;20053;-75
2022/12/27 14:18:14;;;;;;;9.82;2.90;;;7.70;99.90;;;;;;4895351;29;20070;-75
2022/12/27 14:21:07;;;;;;;13.48;3.40;;;7.80;99.90;;;;;;4854398;29;20056;-75
2022/12/27 14:23:46;;;;;;;17.42;3.40;;;7.60;99.90;;;;;;4898385;29;20071;-75
2022/12/27 14:26:42;;;;;;;10.23;2.78;;;7.60;99.90;;;;;;4898510;29;20518;-76
2022/12/27 14:29:46;;;;;;;10.60;3.10;;;7.60;99.90;;;;;;4898512;29;20049;-75
2022/12/27 14:32:31;;;;;;;8.60;3.33;;;7.50;99.90;;;;;;4881632;29;20434;-75
2022/12/27 14:35:29;;;;;;;9.98;3.90;;;7.60;99.90;;;;;;4895438;29;20418;-75
2022/12/27 14:38:18;;;;;;;12.88;3.90;;;7.50;99.90;;;;;;4881227;29;20056;-75
2022/12/27 14:41:02;;;;;;;12.48;3.72;;;7.40;99.90;;;;;;4898176;29;20064;-75
2022/12/27 14:44:06;;;;;;;13.60;4.43;;;7.50;99.90;;;;;;4898755;29;20092;-75
2022/12/27 14:47:01;;;;;;;14.40;4.40;;;7.50;99.90;;;;;;4860844;29;20482;-75
2022/12/27 14:49:54;;;;;;;12.57;4.35;;;7.50;99.90;;;;;;4898235;29;20053;-75
2022/12/27 14:52:25;;;;;;;9.73;3.85;;;7.40;99.90;;;;;;4898015;29;20123;-76
2022/12/27 14:55:22;;;;;;;9.40;3.80;;;7.40;99.90;;;;;;4896961;29;20049;-75
2022/12/27 14:57:54;;;;;;;10.50;3.85;;;8.30;99.90;;;;;;4881459;29;20057;-75
2022/12/27 15:00:21;;;;;;;12.45;4.15;;;7.30;99.90;;;;;;4896838;29;20107;-75
2022/12/27 15:03:11;;;;;;;11.85;4.20;;;7.30;99.90;;;;;;4881061;29;20067;-76
2022/12/27 15:06:08;;;;;;;11.57;3.78;;;7.30;99.90;;;;;;4895780;29;20080;-75
2022/12/27 15:09:04;;;;;;;11.93;4.22;;;7.20;99.90;;;;;;4895893;29;20056;-75
2022/12/27 15:11:49;;;;;;;12.90;4.72;;;7.10;99.90;;;;;;4897589;29;20049;-75
2022/12/27 15:14:37;;;;;;;12.98;4.43;;;7.10;99.90;;;;;;4880726;29;20067;-75
2022/12/27 15:17:29;;;;;;;10.55;4.82;;;7.30;99.90;;;;;;4894651;29;20494;-75
2022/12/27 15:20:21;;;;;;;12.60;5.70;;;7.10;99.90;;;;;;4878596;29;20140;-75